sensor_id;sensor_type;location;lat;lon;timestamp;P1;durP1;ratioP1;P2;durP2;ratioP2
18455;SDS011;9357;49.900;8.208;2023-07-30T00:01:13;2.40;;;2.10;;
18455;SDS011;9357;49.900;8.208;2023-07-30T00:02:45;2.87;;;2.07;;
18455;SDS011;9357;49.900;8.208;2023-07-30T00:04:18;2.10;;;1.87;;
18455;SDS011;9357;49.900;8.208;2023-07-30T00:05:53;2.13;;;2.00;;
18455;SDS011;9357;49.900;8.208;2023-07-30T00:07:26;1.97;;;1.47;;
18455;SDS011;9357;49.900;8.208;2023-07-30T00:08:58;1.67;;;1.57;;
18455;SDS011;9357;49.900;8.208;2023-07-30T00:10:32;2.50;;;1.80;;
18455;SDS011;9357;49.900;8.208;2023-07-30T00:12:04;3.77;;;1.87;;
18455;SDS011;9357;49.900;8.208;2023-07-30T00:13:37;1.70;;;1.60;;
18455;SDS011;9357;49.900;8.208;2023-07-30T00:15:10;1.77;;;1.67;;
18455;SDS011;9357;49.900;8.208;2023-07-30T00:16:42;1.57;;;1.47;;
18455;SDS011;9357;49.900;8.208;2023-07-30T00:18:14;1.80;;;1.70;;
18455;SDS011;9357;49.900;8.208;2023-07-30T00:19:47;1.50;;;1.40;;
18455;SDS011;9357;49.900;8.208;2023-07-30T00:21:19;2.17;;;1.50;;
18455;SDS011;9357;49.900;8.208;2023-07-30T00:22:51;1.40;;;1.33;;
18455;SDS011;9357;49.900;8.208;2023-07-30T00:24:24;1.53;;;1.47;;
18455;SDS011;9357;49.900;8.208;2023-07-30T00:25:57;1.60;;;1.50;;
18455;SDS011;9357;49.900;8.208;2023-07-30T00:27:30;2.50;;;1.70;;
18455;SDS011;9357;49.900;8.208;2023-07-30T00:29:01;1.30;;;1.30;;
18455;SDS011;9357;49.900;8.208;2023-07-30T00:30:34;1.70;;;1.60;;
18455;SDS011;9357;49.900;8.208;2023-07-30T00:32:06;1.53;;;1.43;;
18455;SDS011;9357;49.900;8.208;2023-07-30T00:33:40;1.40;;;1.30;;
18455;SDS011;9357;49.900;8.208;2023-07-30T00:35:12;1.53;;;1.40;;
18455;SDS011;9357;49.900;8.208;2023-07-30T00:36:44;1.50;;;1.40;;
18455;SDS011;9357;49.900;8.208;2023-07-30T00:38:17;1.60;;;1.50;;
18455;SDS011;9357;49.900;8.208;2023-07-30T00:39:50;1.13;;;1.13;;
18455;SDS011;9357;49.900;8.208;2023-07-30T00:41:23;1.30;;;1.30;;
18455;SDS011;9357;49.900;8.208;2023-07-30T00:42:56;1.60;;;1.50;;
18455;SDS011;9357;49.900;8.208;2023-07-30T00:44:28;1.53;;;1.43;;
18455;SDS011;9357;49.900;8.208;2023-07-30T00:46:00;4.37;;;1.53;;
18455;SDS011;9357;49.900;8.208;2023-07-30T00:47:33;1.43;;;1.30;;
18455;SDS011;9357;49.900;8.208;2023-07-30T00:49:06;2.37;;;1.47;;
18455;SDS011;9357;49.900;8.208;2023-07-30T00:50:39;1.90;;;1.40;;
18455;SDS011;9357;49.900;8.208;2023-07-30T00:52:11;1.77;;;1.67;;
18455;SDS011;9357;49.900;8.208;2023-07-30T00:53:44;1.60;;;1.50;;
18455;SDS011;9357;49.900;8.208;2023-07-30T00:55:16;1.53;;;1.40;;
18455;SDS011;9357;49.900;8.208;2023-07-30T00:56:51;2.50;;;1.40;;
18455;SDS011;9357;49.900;8.208;2023-07-30T00:58:24;1.80;;;1.70;;
18455;SDS011;9357;49.900;8.208;2023-07-30T00:59:56;1.70;;;1.60;;
18455;SDS011;9357;49.900;8.208;2023-07-30T01:01:28;1.70;;;1.60;;
18455;SDS011;9357;49.900;8.208;2023-07-30T01:03:06;1.93;;;1.40;;
18455;SDS011;9357;49.900;8.208;2023-07-30T01:04:38;1.50;;;1.43;;
18455;SDS011;9357;49.900;8.208;2023-07-30T01:06:12;1.77;;;1.30;;
18455;SDS011;9357;49.900;8.208;2023-07-30T01:07:44;1.40;;;1.40;;
18455;SDS011;9357;49.900;8.208;2023-07-30T01:09:17;1.50;;;1.40;;
18455;SDS011;9357;49.900;8.208;2023-07-30T01:10:48;1.43;;;1.33;;
18455;SDS011;9357;49.900;8.208;2023-07-30T01:12:23;1.80;;;1.70;;
18455;SDS011;9357;49.900;8.208;2023-07-30T01:13:56;3.20;;;2.40;;
18455;SDS011;9357;49.900;8.208;2023-07-30T01:15:29;1.70;;;1.60;;
18455;SDS011;9357;49.900;8.208;2023-07-30T01:17:03;2.33;;;1.50;;
18455;SDS011;9357;49.900;8.208;2023-07-30T01:18:35;1.43;;;1.33;;
18455;SDS011;9357;49.900;8.208;2023-07-30T01:20:08;1.57;;;1.47;;
18455;SDS011;9357;49.900;8.208;2023-07-30T01:21:43;2.17;;;1.40;;
18455;SDS011;9357;49.900;8.208;2023-07-30T01:23:16;1.53;;;1.43;;
18455;SDS011;9357;49.900;8.208;2023-07-30T01:24:47;1.50;;;1.40;;
18455;SDS011;9357;49.900;8.208;2023-07-30T01:26:22;1.57;;;1.47;;
18455;SDS011;9357;49.900;8.208;2023-07-30T01:27:59;1.80;;;1.60;;
18455;SDS011;9357;49.900;8.208;2023-07-30T01:29:38;1.90;;;1.80;;
18455;SDS011;9357;49.900;8.208;2023-07-30T01:31:14;2.33;;;1.90;;
18455;SDS011;9357;49.900;8.208;2023-07-30T01:32:49;1.80;;;1.70;;
18455;SDS011;9357;49.900;8.208;2023-07-30T01:34:22;1.80;;;1.70;;
18455;SDS011;9357;49.900;8.208;2023-07-30T01:35:56;1.53;;;1.43;;
18455;SDS011;9357;49.900;8.208;2023-07-30T01:37:30;2.67;;;2.30;;
18455;SDS011;9357;49.900;8.208;2023-07-30T01:39:04;2.67;;;2.40;;
18455;SDS011;9357;49.900;8.208;2023-07-30T01:40:37;1.83;;;1.73;;
18455;SDS011;9357;49.900;8.208;2023-07-30T01:42:11;2.00;;;1.80;;
18455;SDS011;9357;49.900;8.208;2023-07-30T01:43:43;1.70;;;1.60;;
18455;SDS011;9357;49.900;8.208;2023-07-30T01:45:16;1.70;;;1.60;;
18455;SDS011;9357;49.900;8.208;2023-07-30T01:46:47;2.23;;;2.00;;
18455;SDS011;9357;49.900;8.208;2023-07-30T01:48:20;1.80;;;1.70;;
18455;SDS011;9357;49.900;8.208;2023-07-30T01:49:52;1.60;;;1.50;;
18455;SDS011;9357;49.900;8.208;2023-07-30T01:51:24;1.77;;;1.50;;
18455;SDS011;9357;49.900;8.208;2023-07-30T01:52:58;2.07;;;1.60;;
18455;SDS011;9357;49.900;8.208;2023-07-30T01:54:30;1.47;;;1.37;;
18455;SDS011;9357;49.900;8.208;2023-07-30T01:56:02;1.27;;;1.27;;
18455;SDS011;9357;49.900;8.208;2023-07-30T01:57:35;1.50;;;1.40;;
18455;SDS011;9357;49.900;8.208;2023-07-30T01:59:07;1.57;;;1.47;;
18455;SDS011;9357;49.900;8.208;2023-07-30T02:00:39;1.30;;;1.30;;
18455;SDS011;9357;49.900;8.208;2023-07-30T02:02:12;1.60;;;1.50;;
18455;SDS011;9357;49.900;8.208;2023-07-30T02:03:44;1.73;;;1.57;;
18455;SDS011;9357;49.900;8.208;2023-07-30T02:05:17;3.07;;;1.60;;
18455;SDS011;9357;49.900;8.208;2023-07-30T02:06:49;1.60;;;1.50;;
18455;SDS011;9357;49.900;8.208;2023-07-30T02:08:23;2.23;;;1.70;;
18455;SDS011;9357;49.900;8.208;2023-07-30T02:09:56;1.90;;;1.80;;
18455;SDS011;9357;49.900;8.208;2023-07-30T02:11:27;2.00;;;1.40;;
18455;SDS011;9357;49.900;8.208;2023-07-30T02:13:00;1.43;;;1.40;;
18455;SDS011;9357;49.900;8.208;2023-07-30T02:14:33;2.00;;;1.40;;
18455;SDS011;9357;49.900;8.208;2023-07-30T02:16:05;1.37;;;1.27;;
18455;SDS011;9357;49.900;8.208;2023-07-30T02:17:38;2.73;;;1.57;;
18455;SDS011;9357;49.900;8.208;2023-07-30T02:19:10;2.10;;;1.70;;
18455;SDS011;9357;49.900;8.208;2023-07-30T02:20:43;1.30;;;1.27;;
18455;SDS011;9357;49.900;8.208;2023-07-30T02:22:15;1.30;;;1.30;;
18455;SDS011;9357;49.900;8.208;2023-07-30T02:23:49;2.17;;;1.60;;
18455;SDS011;9357;49.900;8.208;2023-07-30T02:25:20;1.60;;;1.50;;
18455;SDS011;9357;49.900;8.208;2023-07-30T02:26:53;1.50;;;1.40;;
18455;SDS011;9357;49.900;8.208;2023-07-30T02:28:25;1.60;;;1.50;;
18455;SDS011;9357;49.900;8.208;2023-07-30T02:29:58;2.57;;;1.57;;
18455;SDS011;9357;49.900;8.208;2023-07-30T02:31:30;1.67;;;1.57;;
18455;SDS011;9357;49.900;8.208;2023-07-30T02:33:02;1.63;;;1.53;;
18455;SDS011;9357;49.900;8.208;2023-07-30T02:34:35;1.70;;;1.60;;
18455;SDS011;9357;49.900;8.208;2023-07-30T02:36:08;1.60;;;1.50;;
18455;SDS011;9357;49.900;8.208;2023-07-30T02:37:40;1.60;;;1.50;;
18455;SDS011;9357;49.900;8.208;2023-07-30T02:39:14;1.50;;;1.40;;
18455;SDS011;9357;49.900;8.208;2023-07-30T02:40:46;1.67;;;1.57;;
18455;SDS011;9357;49.900;8.208;2023-07-30T02:42:19;1.67;;;1.60;;
18455;SDS011;9357;49.900;8.208;2023-07-30T02:43:51;1.60;;;1.50;;
18455;SDS011;9357;49.900;8.208;2023-07-30T02:45:23;1.80;;;1.70;;
18455;SDS011;9357;49.900;8.208;2023-07-30T02:46:55;2.30;;;1.50;;
18455;SDS011;9357;49.900;8.208;2023-07-30T02:48:28;1.60;;;1.50;;
18455;SDS011;9357;49.900;8.208;2023-07-30T02:50:00;1.33;;;1.30;;
18455;SDS011;9357;49.900;8.208;2023-07-30T02:51:34;1.50;;;1.40;;
18455;SDS011;9357;49.900;8.208;2023-07-30T02:53:06;1.63;;;1.40;;
18455;SDS011;9357;49.900;8.208;2023-07-30T02:54:40;1.60;;;1.50;;
18455;SDS011;9357;49.900;8.208;2023-07-30T02:56:12;1.70;;;1.60;;
18455;SDS011;9357;49.900;8.208;2023-07-30T02:57:45;1.60;;;1.50;;
18455;SDS011;9357;49.900;8.208;2023-07-30T02:59:17;1.50;;;1.40;;
18455;SDS011;9357;49.900;8.208;2023-07-30T03:00:49;1.60;;;1.50;;
18455;SDS011;9357;49.900;8.208;2023-07-30T03:02:21;1.60;;;1.50;;
18455;SDS011;9357;49.900;8.208;2023-07-30T03:03:54;1.77;;;1.40;;
18455;SDS011;9357;49.900;8.208;2023-07-30T03:05:26;1.57;;;1.47;;
18455;SDS011;9357;49.900;8.208;2023-07-30T03:06:59;1.87;;;1.70;;
18455;SDS011;9357;49.900;8.208;2023-07-30T03:08:31;1.90;;;1.80;;
18455;SDS011;9357;49.900;8.208;2023-07-30T03:10:05;1.60;;;1.50;;
18455;SDS011;9357;49.900;8.208;2023-07-30T03:11:37;2.27;;;1.50;;
18455;SDS011;9357;49.900;8.208;2023-07-30T03:13:11;2.87;;;1.67;;
18455;SDS011;9357;49.900;8.208;2023-07-30T03:14:42;1.33;;;1.33;;
18455;SDS011;9357;49.900;8.208;2023-07-30T03:16:15;1.50;;;1.40;;
18455;SDS011;9357;49.900;8.208;2023-07-30T03:17:47;1.93;;;1.60;;
18455;SDS011;9357;49.900;8.208;2023-07-30T03:19:20;2.53;;;1.70;;
18455;SDS011;9357;49.900;8.208;2023-07-30T03:20:54;1.80;;;1.70;;
18455;SDS011;9357;49.900;8.208;2023-07-30T03:22:30;1.63;;;1.50;;
18455;SDS011;9357;49.900;8.208;2023-07-30T03:24:03;2.03;;;1.53;;
18455;SDS011;9357;49.900;8.208;2023-07-30T03:25:36;1.50;;;1.40;;
18455;SDS011;9357;49.900;8.208;2023-07-30T03:27:08;1.67;;;1.57;;
18455;SDS011;9357;49.900;8.208;2023-07-30T03:28:41;1.90;;;1.50;;
18455;SDS011;9357;49.900;8.208;2023-07-30T03:30:13;2.37;;;1.50;;
18455;SDS011;9357;49.900;8.208;2023-07-30T03:31:46;2.33;;;1.63;;
18455;SDS011;9357;49.900;8.208;2023-07-30T03:33:18;2.10;;;1.77;;
18455;SDS011;9357;49.900;8.208;2023-07-30T03:34:50;4.20;;;1.60;;
18455;SDS011;9357;49.900;8.208;2023-07-30T03:36:22;2.57;;;1.70;;
18455;SDS011;9357;49.900;8.208;2023-07-30T03:37:55;1.50;;;1.40;;
18455;SDS011;9357;49.900;8.208;2023-07-30T03:39:27;1.63;;;1.43;;
18455;SDS011;9357;49.900;8.208;2023-07-30T03:41:01;1.73;;;1.63;;
18455;SDS011;9357;49.900;8.208;2023-07-30T03:42:33;1.80;;;1.70;;
18455;SDS011;9357;49.900;8.208;2023-07-30T03:44:05;1.70;;;1.60;;
18455;SDS011;9357;49.900;8.208;2023-07-30T03:45:38;1.80;;;1.70;;
18455;SDS011;9357;49.900;8.208;2023-07-30T03:47:10;2.00;;;1.80;;
18455;SDS011;9357;49.900;8.208;2023-07-30T03:48:43;1.87;;;1.40;;
18455;SDS011;9357;49.900;8.208;2023-07-30T03:50:16;1.90;;;1.80;;
18455;SDS011;9357;49.900;8.208;2023-07-30T03:51:47;1.77;;;1.67;;
18455;SDS011;9357;49.900;8.208;2023-07-30T03:53:20;1.90;;;1.80;;
18455;SDS011;9357;49.900;8.208;2023-07-30T03:54:52;1.70;;;1.60;;
18455;SDS011;9357;49.900;8.208;2023-07-30T03:56:26;1.60;;;1.50;;
18455;SDS011;9357;49.900;8.208;2023-07-30T03:57:58;2.20;;;1.70;;
18455;SDS011;9357;49.900;8.208;2023-07-30T03:59:31;1.67;;;1.57;;
18455;SDS011;9357;49.900;8.208;2023-07-30T04:01:03;2.23;;;1.70;;
18455;SDS011;9357;49.900;8.208;2023-07-30T04:02:37;1.67;;;1.57;;
18455;SDS011;9357;49.900;8.208;2023-07-30T04:04:09;1.87;;;1.70;;
18455;SDS011;9357;49.900;8.208;2023-07-30T04:05:41;1.80;;;1.70;;
18455;SDS011;9357;49.900;8.208;2023-07-30T04:07:13;2.10;;;1.90;;
18455;SDS011;9357;49.900;8.208;2023-07-30T04:08:46;2.17;;;1.70;;
18455;SDS011;9357;49.900;8.208;2023-07-30T04:10:18;3.00;;;1.70;;
18455;SDS011;9357;49.900;8.208;2023-07-30T04:11:52;1.63;;;1.53;;
18455;SDS011;9357;49.900;8.208;2023-07-30T04:13:23;1.97;;;1.60;;
18455;SDS011;9357;49.900;8.208;2023-07-30T04:14:56;1.60;;;1.50;;
18455;SDS011;9357;49.900;8.208;2023-07-30T04:16:28;1.70;;;1.60;;
18455;SDS011;9357;49.900;8.208;2023-07-30T04:18:01;1.70;;;1.60;;
18455;SDS011;9357;49.900;8.208;2023-07-30T04:19:33;2.10;;;1.60;;
18455;SDS011;9357;49.900;8.208;2023-07-30T04:21:05;2.60;;;1.53;;
18455;SDS011;9357;49.900;8.208;2023-07-30T04:22:37;1.90;;;1.70;;
18455;SDS011;9357;49.900;8.208;2023-07-30T04:24:12;1.77;;;1.67;;
18455;SDS011;9357;49.900;8.208;2023-07-30T04:25:44;2.90;;;1.90;;
18455;SDS011;9357;49.900;8.208;2023-07-30T04:27:18;2.20;;;1.57;;
18455;SDS011;9357;49.900;8.208;2023-07-30T04:28:50;1.90;;;1.70;;
18455;SDS011;9357;49.900;8.208;2023-07-30T04:30:23;2.10;;;1.70;;
18455;SDS011;9357;49.900;8.208;2023-07-30T04:31:54;1.67;;;1.57;;
18455;SDS011;9357;49.900;8.208;2023-07-30T04:33:27;2.40;;;2.00;;
18455;SDS011;9357;49.900;8.208;2023-07-30T04:35:00;2.80;;;2.00;;
18455;SDS011;9357;49.900;8.208;2023-07-30T04:36:34;3.13;;;1.70;;
18455;SDS011;9357;49.900;8.208;2023-07-30T04:38:06;1.90;;;1.80;;
18455;SDS011;9357;49.900;8.208;2023-07-30T04:39:38;2.47;;;1.70;;
18455;SDS011;9357;49.900;8.208;2023-07-30T04:41:11;1.93;;;1.70;;
18455;SDS011;9357;49.900;8.208;2023-07-30T04:42:44;2.03;;;1.93;;
18455;SDS011;9357;49.900;8.208;2023-07-30T04:44:17;1.57;;;1.47;;
18455;SDS011;9357;49.900;8.208;2023-07-30T04:45:50;1.87;;;1.70;;
18455;SDS011;9357;49.900;8.208;2023-07-30T04:47:22;2.20;;;2.00;;
18455;SDS011;9357;49.900;8.208;2023-07-30T04:48:54;1.93;;;1.70;;
18455;SDS011;9357;49.900;8.208;2023-07-30T04:50:27;1.73;;;1.60;;
18455;SDS011;9357;49.900;8.208;2023-07-30T04:51:59;3.23;;;1.73;;
18455;SDS011;9357;49.900;8.208;2023-07-30T04:53:31;1.80;;;1.70;;
18455;SDS011;9357;49.900;8.208;2023-07-30T04:55:05;2.10;;;1.73;;
18455;SDS011;9357;49.900;8.208;2023-07-30T04:56:37;1.90;;;1.80;;
18455;SDS011;9357;49.900;8.208;2023-07-30T04:58:11;1.93;;;1.83;;
18455;SDS011;9357;49.900;8.208;2023-07-30T04:59:44;1.87;;;1.77;;
18455;SDS011;9357;49.900;8.208;2023-07-30T05:01:16;2.27;;;1.80;;
18455;SDS011;9357;49.900;8.208;2023-07-30T05:02:48;2.03;;;1.80;;
18455;SDS011;9357;49.900;8.208;2023-07-30T05:04:20;2.17;;;2.00;;
18455;SDS011;9357;49.900;8.208;2023-07-30T05:05:53;4.07;;;3.00;;
18455;SDS011;9357;49.900;8.208;2023-07-30T05:07:25;2.33;;;2.13;;
18455;SDS011;9357;49.900;8.208;2023-07-30T05:08:58;2.80;;;2.00;;
18455;SDS011;9357;49.900;8.208;2023-07-30T05:10:30;2.00;;;1.90;;
18455;SDS011;9357;49.900;8.208;2023-07-30T05:12:02;2.20;;;2.00;;
18455;SDS011;9357;49.900;8.208;2023-07-30T05:13:37;2.10;;;2.00;;
18455;SDS011;9357;49.900;8.208;2023-07-30T05:15:09;2.73;;;2.53;;
18455;SDS011;9357;49.900;8.208;2023-07-30T05:16:42;2.50;;;2.17;;
18455;SDS011;9357;49.900;8.208;2023-07-30T05:18:14;3.20;;;2.27;;
18455;SDS011;9357;49.900;8.208;2023-07-30T05:19:46;2.20;;;2.00;;
18455;SDS011;9357;49.900;8.208;2023-07-30T05:21:18;2.30;;;2.10;;
18455;SDS011;9357;49.900;8.208;2023-07-30T05:22:51;2.20;;;2.00;;
18455;SDS011;9357;49.900;8.208;2023-07-30T05:24:23;1.80;;;1.70;;
18455;SDS011;9357;49.900;8.208;2023-07-30T05:25:55;2.33;;;2.00;;
18455;SDS011;9357;49.900;8.208;2023-07-30T05:27:27;2.50;;;2.07;;
18455;SDS011;9357;49.900;8.208;2023-07-30T05:29:03;2.23;;;2.03;;
18455;SDS011;9357;49.900;8.208;2023-07-30T05:30:35;3.03;;;2.00;;
18455;SDS011;9357;49.900;8.208;2023-07-30T05:32:08;1.90;;;1.80;;
18455;SDS011;9357;49.900;8.208;2023-07-30T05:33:40;2.87;;;2.00;;
18455;SDS011;9357;49.900;8.208;2023-07-30T05:35:13;2.73;;;2.03;;
18455;SDS011;9357;49.900;8.208;2023-07-30T05:36:45;2.13;;;1.93;;
18455;SDS011;9357;49.900;8.208;2023-07-30T05:38:17;2.00;;;1.90;;
18455;SDS011;9357;49.900;8.208;2023-07-30T05:39:49;2.73;;;1.87;;
18455;SDS011;9357;49.900;8.208;2023-07-30T05:41:22;2.07;;;1.90;;
18455;SDS011;9357;49.900;8.208;2023-07-30T05:42:54;2.67;;;1.67;;
18455;SDS011;9357;49.900;8.208;2023-07-30T05:44:28;1.53;;;1.43;;
18455;SDS011;9357;49.900;8.208;2023-07-30T05:46:00;2.30;;;2.00;;
18455;SDS011;9357;49.900;8.208;2023-07-30T05:47:32;2.33;;;1.90;;
18455;SDS011;9357;49.900;8.208;2023-07-30T05:49:05;1.73;;;1.63;;
18455;SDS011;9357;49.900;8.208;2023-07-30T05:50:37;1.80;;;1.70;;
18455;SDS011;9357;49.900;8.208;2023-07-30T05:52:10;1.90;;;1.80;;
18455;SDS011;9357;49.900;8.208;2023-07-30T05:53:42;1.90;;;1.80;;
18455;SDS011;9357;49.900;8.208;2023-07-30T05:55:14;1.87;;;1.70;;
18455;SDS011;9357;49.900;8.208;2023-07-30T05:56:46;2.10;;;1.70;;
18455;SDS011;9357;49.900;8.208;2023-07-30T05:58:19;2.17;;;1.97;;
18455;SDS011;9357;49.900;8.208;2023-07-30T05:59:52;2.40;;;2.10;;
18455;SDS011;9357;49.900;8.208;2023-07-30T06:01:25;2.10;;;1.70;;
18455;SDS011;9357;49.900;8.208;2023-07-30T06:02:57;2.33;;;1.80;;
18455;SDS011;9357;49.900;8.208;2023-07-30T06:04:29;2.00;;;1.90;;
18455;SDS011;9357;49.900;8.208;2023-07-30T06:06:02;1.83;;;1.73;;
18455;SDS011;9357;49.900;8.208;2023-07-30T06:07:34;1.60;;;1.50;;
18455;SDS011;9357;49.900;8.208;2023-07-30T06:09:07;2.77;;;1.83;;
18455;SDS011;9357;49.900;8.208;2023-07-30T06:10:39;1.90;;;1.80;;
18455;SDS011;9357;49.900;8.208;2023-07-30T06:12:12;1.70;;;1.60;;
18455;SDS011;9357;49.900;8.208;2023-07-30T06:13:45;2.00;;;1.63;;
18455;SDS011;9357;49.900;8.208;2023-07-30T06:15:18;2.17;;;1.97;;
18455;SDS011;9357;49.900;8.208;2023-07-30T06:16:51;1.80;;;1.70;;
18455;SDS011;9357;49.900;8.208;2023-07-30T06:18:24;1.87;;;1.77;;
18455;SDS011;9357;49.900;8.208;2023-07-30T06:19:55;1.90;;;1.80;;
18455;SDS011;9357;49.900;8.208;2023-07-30T06:21:28;1.80;;;1.70;;
18455;SDS011;9357;49.900;8.208;2023-07-30T06:23:00;2.13;;;1.90;;
18455;SDS011;9357;49.900;8.208;2023-07-30T06:24:33;2.27;;;1.77;;
18455;SDS011;9357;49.900;8.208;2023-07-30T06:26:06;2.60;;;1.73;;
18455;SDS011;9357;49.900;8.208;2023-07-30T06:27:39;2.40;;;1.73;;
18455;SDS011;9357;49.900;8.208;2023-07-30T06:29:11;2.20;;;1.70;;
18455;SDS011;9357;49.900;8.208;2023-07-30T06:30:45;1.90;;;1.80;;
18455;SDS011;9357;49.900;8.208;2023-07-30T06:32:17;1.80;;;1.70;;
18455;SDS011;9357;49.900;8.208;2023-07-30T06:33:49;2.47;;;1.60;;
18455;SDS011;9357;49.900;8.208;2023-07-30T06:35:22;1.93;;;1.77;;
18455;SDS011;9357;49.900;8.208;2023-07-30T06:36:54;2.00;;;1.90;;
18455;SDS011;9357;49.900;8.208;2023-07-30T06:38:27;1.90;;;1.70;;
18455;SDS011;9357;49.900;8.208;2023-07-30T06:39:59;3.40;;;1.80;;
18455;SDS011;9357;49.900;8.208;2023-07-30T06:41:32;1.87;;;1.77;;
18455;SDS011;9357;49.900;8.208;2023-07-30T06:43:04;1.60;;;1.50;;
18455;SDS011;9357;49.900;8.208;2023-07-30T06:44:36;2.20;;;2.00;;
18455;SDS011;9357;49.900;8.208;2023-07-30T06:46:10;1.90;;;1.80;;
18455;SDS011;9357;49.900;8.208;2023-07-30T06:47:42;2.13;;;1.80;;
18455;SDS011;9357;49.900;8.208;2023-07-30T06:49:15;1.90;;;1.80;;
18455;SDS011;9357;49.900;8.208;2023-07-30T06:50:47;1.97;;;1.87;;
18455;SDS011;9357;49.900;8.208;2023-07-30T06:52:19;2.47;;;1.50;;
18455;SDS011;9357;49.900;8.208;2023-07-30T06:53:51;2.20;;;2.00;;
18455;SDS011;9357;49.900;8.208;2023-07-30T06:55:24;1.80;;;1.70;;
18455;SDS011;9357;49.900;8.208;2023-07-30T06:56:56;1.77;;;1.67;;
18455;SDS011;9357;49.900;8.208;2023-07-30T06:58:29;1.60;;;1.50;;
18455;SDS011;9357;49.900;8.208;2023-07-30T07:00:02;2.20;;;1.60;;
18455;SDS011;9357;49.900;8.208;2023-07-30T07:01:35;2.20;;;1.90;;
18455;SDS011;9357;49.900;8.208;2023-07-30T07:03:09;4.80;;;2.20;;
18455;SDS011;9357;49.900;8.208;2023-07-30T07:04:41;3.23;;;2.30;;
18455;SDS011;9357;49.900;8.208;2023-07-30T07:06:13;3.67;;;2.07;;
18455;SDS011;9357;49.900;8.208;2023-07-30T07:07:45;4.90;;;2.13;;
18455;SDS011;9357;49.900;8.208;2023-07-30T07:09:18;3.27;;;1.80;;
18455;SDS011;9357;49.900;8.208;2023-07-30T07:10:51;1.97;;;1.80;;
18455;SDS011;9357;49.900;8.208;2023-07-30T07:12:23;2.73;;;2.00;;
18455;SDS011;9357;49.900;8.208;2023-07-30T07:13:56;2.00;;;1.80;;
18455;SDS011;9357;49.900;8.208;2023-07-30T07:15:28;3.57;;;2.03;;
18455;SDS011;9357;49.900;8.208;2023-07-30T07:17:02;2.87;;;2.10;;
18455;SDS011;9357;49.900;8.208;2023-07-30T07:18:34;2.40;;;1.90;;
18455;SDS011;9357;49.900;8.208;2023-07-30T07:20:07;2.10;;;2.00;;
18455;SDS011;9357;49.900;8.208;2023-07-30T07:21:40;3.53;;;2.33;;
18455;SDS011;9357;49.900;8.208;2023-07-30T07:23:13;2.33;;;2.10;;
18455;SDS011;9357;49.900;8.208;2023-07-30T07:24:45;2.37;;;2.17;;
18455;SDS011;9357;49.900;8.208;2023-07-30T07:26:18;2.73;;;2.10;;
18455;SDS011;9357;49.900;8.208;2023-07-30T07:27:50;2.87;;;2.10;;
18455;SDS011;9357;49.900;8.208;2023-07-30T07:29:23;2.30;;;2.10;;
18455;SDS011;9357;49.900;8.208;2023-07-30T07:30:54;2.20;;;2.00;;
18455;SDS011;9357;49.900;8.208;2023-07-30T07:32:29;1.90;;;1.80;;
18455;SDS011;9357;49.900;8.208;2023-07-30T07:34:00;2.40;;;2.10;;
18455;SDS011;9357;49.900;8.208;2023-07-30T07:35:33;2.30;;;1.90;;
18455;SDS011;9357;49.900;8.208;2023-07-30T07:37:05;2.00;;;1.90;;
18455;SDS011;9357;49.900;8.208;2023-07-30T07:38:38;2.17;;;2.00;;
18455;SDS011;9357;49.900;8.208;2023-07-30T07:40:10;2.10;;;2.00;;
18455;SDS011;9357;49.900;8.208;2023-07-30T07:41:43;1.80;;;1.70;;
18455;SDS011;9357;49.900;8.208;2023-07-30T07:43:14;1.77;;;1.67;;
18455;SDS011;9357;49.900;8.208;2023-07-30T07:44:47;1.80;;;1.70;;
18455;SDS011;9357;49.900;8.208;2023-07-30T07:46:19;2.30;;;2.00;;
18455;SDS011;9357;49.900;8.208;2023-07-30T07:47:53;2.17;;;2.07;;
18455;SDS011;9357;49.900;8.208;2023-07-30T07:49:25;2.60;;;2.40;;
18455;SDS011;9357;49.900;8.208;2023-07-30T07:50:58;2.80;;;2.10;;
18455;SDS011;9357;49.900;8.208;2023-07-30T07:52:30;2.30;;;2.10;;
18455;SDS011;9357;49.900;8.208;2023-07-30T07:54:02;2.50;;;2.40;;
18455;SDS011;9357;49.900;8.208;2023-07-30T07:55:34;2.40;;;2.20;;
18455;SDS011;9357;49.900;8.208;2023-07-30T07:57:07;3.33;;;2.30;;
18455;SDS011;9357;49.900;8.208;2023-07-30T07:58:39;2.40;;;2.20;;
18455;SDS011;9357;49.900;8.208;2023-07-30T08:00:14;2.57;;;2.37;;
18455;SDS011;9357;49.900;8.208;2023-07-30T08:01:45;3.07;;;2.70;;
18455;SDS011;9357;49.900;8.208;2023-07-30T08:03:19;2.60;;;2.27;;
18455;SDS011;9357;49.900;8.208;2023-07-30T08:04:51;2.60;;;2.40;;
18455;SDS011;9357;49.900;8.208;2023-07-30T08:06:24;2.63;;;2.43;;
18455;SDS011;9357;49.900;8.208;2023-07-30T08:07:56;2.53;;;2.33;;
18455;SDS011;9357;49.900;8.208;2023-07-30T08:09:29;2.93;;;2.40;;
18455;SDS011;9357;49.900;8.208;2023-07-30T08:11:04;2.80;;;2.60;;
18455;SDS011;9357;49.900;8.208;2023-07-30T08:12:37;2.30;;;2.20;;
18455;SDS011;9357;49.900;8.208;2023-07-30T08:14:09;2.80;;;2.60;;
18455;SDS011;9357;49.900;8.208;2023-07-30T08:15:42;2.90;;;2.70;;
18455;SDS011;9357;49.900;8.208;2023-07-30T08:17:14;3.00;;;2.80;;
18455;SDS011;9357;49.900;8.208;2023-07-30T08:18:48;3.43;;;3.13;;
18455;SDS011;9357;49.900;8.208;2023-07-30T08:20:21;3.10;;;2.90;;
18455;SDS011;9357;49.900;8.208;2023-07-30T08:21:54;3.07;;;2.87;;
18455;SDS011;9357;49.900;8.208;2023-07-30T08:23:27;3.10;;;2.80;;
18455;SDS011;9357;49.900;8.208;2023-07-30T08:25:01;3.50;;;3.20;;
18455;SDS011;9357;49.900;8.208;2023-07-30T08:26:34;3.17;;;2.93;;
18455;SDS011;9357;49.900;8.208;2023-07-30T08:28:05;3.03;;;2.83;;
18455;SDS011;9357;49.900;8.208;2023-07-30T08:29:38;2.87;;;2.67;;
18455;SDS011;9357;49.900;8.208;2023-07-30T08:31:10;3.97;;;3.20;;
18455;SDS011;9357;49.900;8.208;2023-07-30T08:32:43;3.70;;;3.40;;
18455;SDS011;9357;49.900;8.208;2023-07-30T08:34:16;3.37;;;3.13;;
18455;SDS011;9357;49.900;8.208;2023-07-30T08:35:49;3.30;;;3.00;;
18455;SDS011;9357;49.900;8.208;2023-07-30T08:37:21;3.10;;;2.90;;
18455;SDS011;9357;49.900;8.208;2023-07-30T08:38:54;3.17;;;2.97;;
18455;SDS011;9357;49.900;8.208;2023-07-30T08:40:27;3.47;;;3.17;;
18455;SDS011;9357;49.900;8.208;2023-07-30T08:41:59;3.43;;;3.03;;
18455;SDS011;9357;49.900;8.208;2023-07-30T08:43:32;4.73;;;2.93;;
18455;SDS011;9357;49.900;8.208;2023-07-30T08:45:05;2.90;;;2.50;;
18455;SDS011;9357;49.900;8.208;2023-07-30T08:46:38;3.00;;;2.77;;
18455;SDS011;9357;49.900;8.208;2023-07-30T08:48:10;3.13;;;2.83;;
18455;SDS011;9357;49.900;8.208;2023-07-30T08:49:44;4.40;;;2.93;;
18455;SDS011;9357;49.900;8.208;2023-07-30T08:51:16;2.70;;;2.50;;
18455;SDS011;9357;49.900;8.208;2023-07-30T08:52:49;2.80;;;2.60;;
18455;SDS011;9357;49.900;8.208;2023-07-30T08:54:22;2.93;;;2.67;;
18455;SDS011;9357;49.900;8.208;2023-07-30T08:55:54;2.50;;;2.40;;
18455;SDS011;9357;49.900;8.208;2023-07-30T08:57:29;2.60;;;2.37;;
18455;SDS011;9357;49.900;8.208;2023-07-30T08:59:02;7.27;;;2.47;;
18455;SDS011;9357;49.900;8.208;2023-07-30T09:00:35;4.33;;;2.13;;
18455;SDS011;9357;49.900;8.208;2023-07-30T09:02:18;3.37;;;1.67;;
18455;SDS011;9357;49.900;8.208;2023-07-30T09:03:55;2.97;;;1.40;;
18455;SDS011;9357;49.900;8.208;2023-07-30T09:05:32;1.23;;;1.10;;
18455;SDS011;9357;49.900;8.208;2023-07-30T09:07:06;1.27;;;1.17;;
18455;SDS011;9357;49.900;8.208;2023-07-30T09:08:40;1.20;;;1.10;;
18455;SDS011;9357;49.900;8.208;2023-07-30T09:10:12;1.33;;;1.10;;
18455;SDS011;9357;49.900;8.208;2023-07-30T09:11:50;1.47;;;1.10;;
18455;SDS011;9357;49.900;8.208;2023-07-30T09:13:22;3.60;;;1.20;;
18455;SDS011;9357;49.900;8.208;2023-07-30T09:14:55;1.30;;;1.20;;
18455;SDS011;9357;49.900;8.208;2023-07-30T09:16:27;1.90;;;1.33;;
18455;SDS011;9357;49.900;8.208;2023-07-30T09:18:00;1.10;;;0.93;;
18455;SDS011;9357;49.900;8.208;2023-07-30T09:19:34;1.20;;;1.10;;
18455;SDS011;9357;49.900;8.208;2023-07-30T09:21:09;1.87;;;1.00;;
18455;SDS011;9357;49.900;8.208;2023-07-30T09:22:41;1.00;;;0.80;;
18455;SDS011;9357;49.900;8.208;2023-07-30T09:24:19;1.03;;;0.90;;
18455;SDS011;9357;49.900;8.208;2023-07-30T09:25:53;0.70;;;0.70;;
18455;SDS011;9357;49.900;8.208;2023-07-30T09:27:30;1.80;;;0.70;;